createdAt,value
2023-02-18T00:01:21.921Z,19.10
2023-02-18T00:03:49.167Z,18.20
2023-02-18T00:06:25.527Z,17.80
2023-02-18T00:08:53.146Z,20.10
2023-02-18T00:11:21.824Z,20.37
2023-02-18T00:13:58.655Z,16.90
2023-02-18T00:16:26.612Z,16.40
2023-02-18T00:19:01.244Z,20.23
2023-02-18T00:21:28.859Z,15.90
2023-02-18T00:23:56.084Z,15.90
2023-02-18T00:26:22.969Z,17.33
2023-02-18T00:28:51.449Z,16.57
2023-02-18T00:31:27.081Z,15.73
2023-02-18T00:33:54.374Z,17.00
2023-02-18T00:36:22.771Z,15.60
2023-02-18T00:38:57.884Z,14.87
2023-02-18T00:41:27.091Z,16.57
2023-02-18T00:43:54.120Z,18.20
2023-02-18T00:46:21.686Z,17.77
2023-02-18T00:48:49.411Z,16.40
2023-02-18T00:51:16.166Z,14.13
2023-02-18T00:53:42.957Z,17.60
2023-02-18T00:56:10.497Z,16.87
2023-02-18T00:58:38.067Z,14.83
2023-02-18T01:01:07.633Z,16.77
2023-02-18T01:03:35.320Z,15.03
2023-02-18T01:06:02.246Z,17.90
2023-02-18T01:08:28.936Z,14.67
2023-02-18T01:10:58.116Z,17.00
2023-02-18T01:13:25.667Z,18.13
2023-02-18T01:15:52.818Z,15.80
2023-02-18T01:18:20.854Z,13.23
2023-02-18T01:20:48.025Z,13.40
2023-02-18T01:23:15.603Z,13.40
2023-02-18T01:25:42.688Z,11.47
2023-02-18T01:28:11.376Z,14.53
2023-02-18T01:30:38.646Z,15.23
2023-02-18T01:33:05.641Z,17.57
2023-02-18T01:35:32.318Z,14.20
2023-02-18T01:37:59.130Z,12.30
2023-02-18T01:40:28.595Z,13.90
2023-02-18T01:42:55.977Z,16.07
2023-02-18T01:45:35.040Z,14.63
2023-02-18T01:48:19.031Z,13.97
2023-02-18T01:50:50.269Z,16.30
2023-02-18T01:53:24.027Z,15.27
2023-02-18T01:55:51.106Z,14.53
2023-02-18T01:58:18.424Z,13.67
2023-02-18T02:00:45.212Z,15.57
2023-02-18T02:03:11.960Z,13.87
2023-02-18T02:05:38.751Z,17.57
2023-02-18T02:08:06.484Z,12.40
2023-02-18T02:10:45.680Z,12.87
2023-02-18T02:13:20.867Z,14.10
2023-02-18T02:15:57.212Z,12.00
2023-02-18T02:18:35.169Z,12.47
2023-02-18T02:21:38.826Z,13.10
2023-02-18T02:24:26.407Z,15.27
2023-02-18T02:27:18.089Z,12.73
2023-02-18T02:30:23.272Z,12.40
2023-02-18T02:33:06.366Z,10.93
2023-02-18T02:35:56.874Z,10.67
2023-02-18T02:38:44.181Z,11.20
2023-02-18T02:41:25.659Z,8.50
2023-02-18T02:43:58.049Z,10.53
2023-02-18T02:46:24.676Z,8.97
2023-02-18T02:49:03.705Z,8.00
2023-02-18T02:51:43.082Z,8.67
2023-02-18T02:54:17.402Z,8.00
2023-02-18T02:56:44.507Z,7.83
2023-02-18T02:59:16.289Z,9.30
2023-02-18T03:01:54.566Z,7.83
2023-02-18T03:04:31.928Z,8.40
2023-02-18T03:07:20.282Z,6.93
2023-02-18T03:09:46.917Z,6.60
2023-02-18T03:12:51.218Z,8.90
2023-02-18T03:15:30.833Z,7.70
2023-02-18T03:18:31.160Z,7.67
2023-02-18T03:21:09.179Z,9.20
2023-02-18T03:23:46.411Z,7.53
2023-02-18T03:26:15.989Z,8.20
2023-02-18T03:28:45.315Z,8.10
2023-02-18T03:31:21.160Z,8.03
2023-02-18T03:34:05.540Z,7.27
2023-02-18T03:36:34.431Z,8.17
2023-02-18T03:39:22.730Z,9.70
2023-02-18T03:41:49.779Z,7.53
2023-02-18T03:44:16.528Z,8.03
2023-02-18T03:46:45.244Z,8.60
2023-02-18T03:49:14.063Z,7.63
2023-02-18T03:51:42.014Z,8.37
2023-02-18T03:54:09.241Z,7.77
2023-02-18T03:56:36.916Z,9.03
2023-02-18T03:59:04.320Z,7.07
2023-02-18T04:01:31.566Z,10.37
2023-02-18T04:03:58.388Z,9.90
2023-02-18T04:06:25.514Z,9.30
2023-02-18T04:08:52.180Z,9.87
2023-02-18T04:11:18.979Z,8.30
2023-02-18T04:13:45.870Z,9.33
2023-02-18T04:16:12.669Z,7.77
2023-02-18T04:18:39.495Z,7.93
2023-02-18T04:21:06.472Z,8.47
2023-02-18T04:23:33.401Z,8.30
2023-02-18T04:26:00.092Z,7.63
2023-02-18T04:28:26.830Z,8.50
2023-02-18T04:30:53.606Z,6.60
2023-02-18T04:33:20.374Z,6.10
2023-02-18T04:35:47.082Z,7.07
2023-02-18T04:38:14.236Z,5.27
2023-02-18T04:40:40.991Z,4.77
2023-02-18T04:43:07.772Z,5.77
2023-02-18T04:45:34.505Z,4.83
2023-02-18T04:48:01.236Z,6.10
2023-02-18T04:50:27.964Z,6.20
2023-02-18T04:52:54.639Z,4.43
2023-02-18T04:55:21.361Z,3.70
2023-02-18T04:57:48.092Z,4.17
2023-02-18T05:00:17.999Z,4.27
2023-02-18T05:02:45.271Z,3.53
2023-02-18T05:05:13.100Z,5.47
2023-02-18T05:07:41.483Z,2.47
2023-02-18T05:10:10.941Z,1.87
2023-02-18T05:12:37.711Z,2.23
2023-02-18T05:15:05.202Z,1.80
2023-02-18T05:17:32.100Z,1.60
2023-02-18T05:19:58.820Z,1.70
2023-02-18T05:22:25.675Z,1.60
2023-02-18T05:24:52.366Z,1.63
2023-02-18T05:27:19.150Z,0.80
2023-02-18T05:29:45.852Z,1.97
2023-02-18T05:32:12.516Z,1.10
2023-02-18T05:34:39.313Z,1.27
2023-02-18T05:37:06.144Z,0.70
2023-02-18T05:39:32.814Z,0.83
2023-02-18T05:41:59.531Z,0.97
2023-02-18T05:44:32.469Z,0.70
2023-02-18T05:47:09.901Z,0.80
2023-02-18T05:49:39.465Z,0.93
2023-02-18T05:52:06.700Z,0.57
2023-02-18T05:54:33.967Z,0.50
2023-02-18T05:57:00.873Z,1.30
2023-02-18T05:59:27.794Z,0.60
2023-02-18T06:01:54.740Z,0.60
2023-02-18T06:04:21.687Z,0.50
2023-02-18T06:06:48.420Z,1.43
2023-02-18T06:09:15.460Z,0.60
2023-02-18T06:11:42.391Z,0.50
2023-02-18T06:14:09.460Z,0.60
2023-02-18T06:16:36.177Z,0.60
2023-02-18T06:19:02.906Z,0.50
2023-02-18T06:21:29.752Z,0.60
2023-02-18T06:23:56.484Z,0.63
2023-02-18T06:26:23.245Z,1.17
2023-02-18T06:28:50.066Z,0.70
2023-02-18T06:31:16.882Z,0.73
2023-02-18T06:33:43.666Z,1.17
2023-02-18T06:36:12.475Z,1.03
2023-02-18T06:38:41.082Z,0.97
2023-02-18T06:41:08.308Z,1.80
2023-02-18T06:43:35.282Z,1.73
2023-02-18T06:46:02.218Z,1.67
2023-02-18T06:48:29.261Z,1.40
2023-02-18T06:50:56.071Z,1.40
2023-02-18T06:53:22.851Z,1.63
2023-02-18T06:55:49.884Z,1.30
2023-02-18T06:58:17.713Z,1.60
2023-02-18T07:00:44.866Z,2.83
2023-02-18T07:03:13.899Z,1.80
2023-02-18T07:05:41.485Z,2.57
2023-02-18T07:08:08.687Z,1.47
2023-02-18T07:10:35.359Z,1.37
2023-02-18T07:13:02.085Z,2.20
2023-02-18T07:15:28.860Z,1.67
2023-02-18T07:17:55.953Z,2.63
2023-02-18T07:20:23.353Z,2.10
2023-02-18T07:22:50.463Z,3.07
2023-02-18T07:25:17.221Z,2.40
2023-02-18T07:27:43.966Z,2.50
2023-02-18T07:30:11.531Z,3.40
2023-02-18T07:32:38.243Z,2.90
2023-02-18T07:35:06.215Z,2.60
2023-02-18T07:37:33.292Z,2.13
2023-02-18T07:40:00.035Z,2.20
2023-02-18T07:42:26.795Z,2.20
2023-02-18T07:44:53.491Z,2.43
2023-02-18T07:47:20.287Z,2.07
2023-02-18T07:49:47.331Z,1.80
2023-02-18T07:52:15.741Z,2.77
2023-02-18T07:54:42.710Z,2.30
2023-02-18T07:57:09.502Z,3.63
2023-02-18T07:59:36.245Z,1.60
2023-02-18T08:02:03.485Z,2.07
2023-02-18T08:04:30.265Z,1.30
2023-02-18T08:06:56.951Z,2.07
2023-02-18T08:09:23.661Z,1.27
2023-02-18T08:11:50.500Z,1.43
2023-02-18T08:14:17.272Z,1.50
2023-02-18T08:16:44.061Z,0.97
2023-02-18T08:19:10.850Z,1.10
2023-02-18T08:21:37.718Z,2.60
2023-02-18T08:24:04.594Z,0.90
2023-02-18T08:26:31.353Z,0.80
2023-02-18T08:28:58.135Z,4.00
2023-02-18T08:31:27.678Z,1.20
2023-02-18T08:33:56.516Z,1.00
2023-02-18T08:36:23.503Z,1.20
2023-02-18T08:38:50.406Z,1.10
2023-02-18T08:41:18.915Z,1.20
2023-02-18T08:43:46.323Z,2.20
2023-02-18T08:46:16.022Z,0.80
2023-02-18T08:48:44.550Z,1.27
2023-02-18T08:51:22.621Z,1.20
2023-02-18T08:53:49.974Z,0.87
2023-02-18T08:56:17.708Z,0.83
2023-02-18T08:58:44.531Z,1.13
2023-02-18T09:01:12.862Z,2.87
2023-02-18T09:03:40.228Z,3.60
2023-02-18T09:06:07.524Z,1.30
2023-02-18T09:08:34.396Z,1.10
2023-02-18T09:11:04.456Z,3.57
2023-02-18T09:13:32.773Z,2.80
2023-02-18T09:16:03.623Z,1.53
2023-02-18T09:18:31.329Z,4.03
2023-02-18T09:21:00.170Z,2.27
2023-02-18T09:23:28.804Z,7.10
2023-02-18T09:25:55.829Z,2.50
2023-02-18T09:28:22.643Z,2.73
2023-02-18T09:30:49.504Z,2.70
2023-02-18T09:33:16.721Z,1.50
2023-02-18T09:35:44.986Z,2.00
2023-02-18T09:38:13.717Z,2.40
2023-02-18T09:40:47.130Z,3.00
2023-02-18T09:43:32.864Z,3.40
2023-02-18T09:46:01.815Z,4.37
2023-02-18T09:48:33.863Z,5.67
2023-02-18T09:51:00.832Z,2.90
2023-02-18T09:53:27.768Z,5.47
2023-02-18T09:55:57.060Z,4.73
2023-02-18T09:58:25.836Z,7.50
2023-02-18T10:01:20.617Z,7.30
2023-02-18T10:03:47.587Z,3.87
2023-02-18T10:06:29.466Z,10.90
2023-02-18T10:09:00.252Z,7.13
2023-02-18T10:11:42.099Z,3.43
2023-02-18T10:14:14.609Z,5.73
2023-02-18T10:16:44.038Z,7.73
2023-02-18T10:19:37.488Z,2.57
2023-02-18T10:22:06.675Z,5.90
2023-02-18T10:24:51.258Z,4.73
2023-02-18T10:27:30.308Z,5.63
2023-02-18T10:30:21.160Z,5.57
2023-02-18T10:32:50.584Z,11.60
2023-02-18T10:35:40.594Z,6.90
2023-02-18T10:38:28.842Z,14.87
2023-02-18T10:41:15.364Z,10.80
2023-02-18T10:43:42.018Z,3.60
2023-02-18T10:46:39.352Z,5.63
2023-02-18T10:49:32.879Z,4.90
2023-02-18T10:52:02.491Z,8.30
2023-02-18T10:54:50.071Z,6.93
2023-02-18T10:57:20.406Z,6.30
2023-02-18T11:00:12.748Z,5.67
2023-02-18T11:02:39.958Z,7.00
2023-02-18T11:05:24.368Z,8.17
2023-02-18T11:07:53.289Z,3.37
2023-02-18T11:10:26.131Z,6.23
2023-02-18T11:13:00.951Z,3.43
2023-02-18T11:15:29.082Z,2.87
2023-02-18T11:17:59.600Z,3.53
2023-02-18T11:20:37.264Z,3.67
2023-02-18T11:23:06.872Z,3.70
2023-02-18T11:25:36.805Z,4.97
2023-02-18T11:28:07.190Z,4.27
2023-02-18T11:30:38.115Z,3.90
2023-02-18T11:33:08.465Z,4.30
2023-02-18T11:35:36.185Z,6.77
2023-02-18T11:38:14.361Z,4.90
2023-02-18T11:40:41.122Z,1.87
2023-02-18T11:43:17.474Z,5.60
2023-02-18T11:45:44.546Z,4.13
2023-02-18T11:48:23.340Z,4.23
2023-02-18T11:50:53.915Z,3.40
2023-02-18T11:53:34.779Z,3.27
2023-02-18T11:56:16.122Z,1.47
2023-02-18T11:58:48.231Z,1.90
2023-02-18T12:01:37.054Z,2.97
2023-02-18T12:04:44.832Z,4.53
2023-02-18T12:07:52.371Z,2.50
2023-02-18T12:10:31.920Z,2.70
2023-02-18T12:13:02.600Z,1.13
2023-02-18T12:15:58.109Z,1.90
2023-02-18T12:18:50.284Z,1.33
2023-02-18T12:21:36.018Z,3.27
2023-02-18T12:24:08.866Z,4.40
2023-02-18T12:26:44.287Z,5.40
2023-02-18T12:29:22.908Z,3.70
2023-02-18T12:32:07.854Z,1.27
2023-02-18T12:34:43.292Z,1.90
2023-02-18T12:37:49.040Z,2.10
2023-02-18T12:40:36.776Z,1.20
2023-02-18T12:43:22.206Z,1.40
2023-02-18T12:45:54.853Z,1.07
2023-02-18T12:48:43.216Z,3.00
2023-02-18T12:51:56.901Z,1.73
2023-02-18T12:54:42.446Z,2.90
2023-02-18T12:57:24.519Z,1.73
2023-02-18T12:59:59.996Z,1.57
2023-02-18T13:02:46.170Z,2.30
2023-02-18T13:05:24.811Z,4.33
2023-02-18T13:08:20.062Z,1.80
2023-02-18T13:11:23.195Z,1.40
2023-02-18T13:14:09.120Z,2.57
2023-02-18T13:16:38.224Z,2.13
2023-02-18T13:19:32.159Z,8.07
2023-02-18T13:22:02.746Z,2.57
2023-02-18T13:24:38.444Z,5.13
2023-02-18T13:27:36.135Z,2.73
2023-02-18T13:30:19.159Z,3.93
2023-02-18T13:32:59.210Z,1.77
2023-02-18T13:35:34.849Z,1.83
2023-02-18T13:38:35.447Z,1.93
2023-02-18T13:41:02.836Z,1.60
2023-02-18T13:43:32.935Z,3.00
2023-02-18T13:46:08.890Z,4.00
2023-02-18T13:49:03.764Z,3.90
2023-02-18T13:51:41.063Z,1.90
2023-02-18T13:54:17.298Z,2.23
2023-02-18T13:56:51.538Z,2.30
2023-02-18T13:59:23.503Z,2.10
2023-02-18T14:01:52.220Z,3.27
2023-02-18T14:04:44.096Z,4.13
2023-02-18T14:07:44.171Z,4.23
2023-02-18T14:10:16.911Z,3.97
2023-02-18T14:13:03.176Z,2.30
2023-02-18T14:15:29.879Z,2.27
2023-02-18T14:18:15.068Z,3.23
2023-02-18T14:20:47.951Z,3.20
2023-02-18T14:23:20.484Z,3.53
2023-02-18T14:25:57.569Z,3.93
2023-02-18T14:28:36.306Z,5.20
2023-02-18T14:31:12.525Z,4.73
2023-02-18T14:34:05.113Z,5.30
2023-02-18T14:36:39.969Z,6.03
2023-02-18T14:39:30.385Z,4.90
2023-02-18T14:42:35.344Z,5.13
2023-02-18T14:45:27.390Z,5.73
2023-02-18T14:48:14.836Z,6.50
2023-02-18T14:50:43.861Z,6.30
2023-02-18T14:53:26.255Z,6.37
2023-02-18T14:56:02.239Z,7.23
2023-02-18T14:58:38.399Z,8.10
2023-02-18T15:01:19.659Z,8.87
2023-02-18T15:03:48.983Z,11.90
2023-02-18T15:06:35.392Z,7.23
2023-02-18T15:09:15.187Z,11.80
2023-02-18T15:11:51.571Z,7.13
2023-02-18T15:14:30.729Z,7.50
2023-02-18T15:16:58.306Z,6.93
2023-02-18T15:19:28.268Z,7.30
2023-02-18T15:21:57.302Z,7.00
2023-02-18T15:24:30.576Z,7.60
2023-02-18T15:27:01.724Z,6.13
2023-02-18T15:29:34.840Z,7.37
2023-02-18T15:32:13.082Z,6.73
2023-02-18T15:34:40.039Z,9.73
2023-02-18T15:37:13.822Z,6.70
2023-02-18T15:39:42.493Z,7.60
2023-02-18T15:42:34.001Z,7.40
2023-02-18T15:45:25.514Z,8.27
2023-02-18T15:47:55.869Z,6.30
2023-02-18T15:50:38.316Z,9.57
2023-02-18T15:53:15.192Z,5.90
2023-02-18T15:55:45.779Z,5.43
2023-02-18T15:58:31.488Z,7.53
2023-02-18T16:01:01.396Z,6.13
2023-02-18T16:03:30.060Z,7.40
2023-02-18T16:06:17.689Z,6.27
2023-02-18T16:09:14.810Z,8.43
2023-02-18T16:11:45.216Z,7.07
2023-02-18T16:14:33.348Z,9.87
2023-02-18T16:17:12.009Z,11.00
2023-02-18T16:20:04.519Z,8.83
2023-02-18T16:22:31.979Z,12.37
2023-02-18T16:25:09.170Z,14.17
2023-02-18T16:27:38.336Z,10.80
2023-02-18T16:30:20.391Z,11.73
2023-02-18T16:32:47.630Z,11.40
2023-02-18T16:35:14.805Z,12.90
2023-02-18T16:37:43.681Z,11.27
2023-02-18T16:40:25.038Z,13.63
2023-02-18T16:42:52.644Z,16.07
2023-02-18T16:45:21.150Z,13.47
2023-02-18T16:47:49.613Z,11.33
2023-02-18T16:50:20.533Z,11.30
2023-02-18T16:52:48.395Z,10.67
2023-02-18T16:55:23.905Z,10.30
2023-02-18T16:57:50.603Z,14.57
2023-02-18T17:00:18.608Z,11.67
2023-02-18T17:02:51.802Z,11.57
2023-02-18T17:05:30.580Z,10.27
2023-02-18T17:08:04.755Z,15.03
2023-02-18T17:10:31.492Z,9.23
2023-02-18T17:12:58.219Z,13.80
2023-02-18T17:15:34.321Z,10.73
2023-02-18T17:18:01.852Z,10.00
2023-02-18T17:20:30.873Z,9.33
2023-02-18T17:22:58.553Z,8.63
2023-02-18T17:25:31.898Z,10.10
2023-02-18T17:27:58.631Z,12.20
2023-02-18T17:30:25.621Z,9.73
2023-02-18T17:32:52.553Z,11.37
2023-02-18T17:35:22.600Z,14.23
2023-02-18T17:37:49.829Z,10.60
2023-02-18T17:40:21.919Z,10.07
2023-02-18T17:42:48.918Z,12.60
2023-02-18T17:45:27.064Z,14.30
2023-02-18T17:47:53.778Z,11.93
2023-02-18T17:50:20.504Z,10.53
2023-02-18T17:52:47.279Z,10.53
2023-02-18T17:55:20.607Z,11.13
2023-02-18T17:57:47.840Z,13.20
2023-02-18T18:00:18.314Z,10.30
2023-02-18T18:02:45.087Z,9.87
2023-02-18T18:05:24.090Z,9.67
2023-02-18T18:07:51.751Z,11.47
2023-02-18T18:10:22.036Z,9.60
2023-02-18T18:12:49.900Z,12.20
2023-02-18T18:15:26.467Z,11.33
2023-02-18T18:17:53.695Z,8.50
2023-02-18T18:20:21.531Z,10.37
2023-02-18T18:22:48.367Z,11.87
2023-02-18T18:25:33.920Z,8.67
2023-02-18T18:28:00.686Z,13.00
2023-02-18T18:30:33.176Z,10.30
2023-02-18T18:33:00.032Z,13.00
2023-02-18T18:35:32.735Z,10.87
2023-02-18T18:38:00.070Z,9.10
2023-02-18T18:40:29.919Z,14.60
2023-02-18T18:42:58.446Z,9.53
2023-02-18T18:45:34.855Z,9.40
2023-02-18T18:48:01.573Z,9.60
2023-02-18T18:50:28.784Z,7.53
2023-02-18T18:52:55.532Z,10.00
2023-02-18T18:55:31.650Z,10.40
2023-02-18T18:57:59.448Z,8.30
2023-02-18T19:00:41.249Z,11.20
2023-02-18T19:03:10.272Z,7.87
2023-02-18T19:05:39.917Z,9.13
2023-02-18T19:08:08.681Z,8.23
2023-02-18T19:10:43.633Z,8.20
2023-02-18T19:13:21.911Z,12.30
2023-02-18T19:15:50.089Z,6.70
2023-02-18T19:18:19.773Z,6.50
2023-02-18T19:20:47.562Z,8.90
2023-02-18T19:23:14.290Z,11.00
2023-02-18T19:25:41.784Z,6.57
2023-02-18T19:28:10.234Z,7.20
2023-02-18T19:30:37.650Z,6.10
2023-02-18T19:33:05.900Z,8.93
2023-02-18T19:35:33.438Z,6.23
2023-02-18T19:38:00.478Z,9.33
2023-02-18T19:40:29.639Z,6.20
2023-02-18T19:42:57.128Z,6.90
2023-02-18T19:45:24.372Z,5.63
2023-02-18T19:47:58.795Z,6.40
2023-02-18T19:50:27.424Z,7.03
2023-02-18T19:52:55.855Z,6.63
2023-02-18T19:55:23.750Z,7.20
2023-02-18T19:57:51.544Z,6.60
2023-02-18T20:00:22.383Z,9.10
2023-02-18T20:02:50.418Z,8.40
2023-02-18T20:05:17.752Z,10.97
2023-02-18T20:07:48.221Z,9.20
2023-02-18T20:10:19.885Z,9.37
2023-02-18T20:12:51.316Z,11.83
2023-02-18T20:15:18.159Z,9.40
2023-02-18T20:17:44.945Z,9.30
2023-02-18T20:20:11.800Z,17.13
2023-02-18T20:22:38.482Z,11.90
2023-02-18T20:25:05.590Z,8.67
2023-02-18T20:27:33.849Z,10.93
2023-02-18T20:30:00.790Z,10.70
2023-02-18T20:32:27.637Z,16.73
2023-02-18T20:34:54.441Z,9.03
2023-02-18T20:37:21.187Z,7.87
2023-02-18T20:39:48.138Z,9.73
2023-02-18T20:42:16.833Z,9.07
2023-02-18T20:44:44.700Z,8.10
2023-02-18T20:47:13.553Z,9.33
2023-02-18T20:49:40.822Z,8.87
2023-02-18T20:52:09.060Z,8.80
2023-02-18T20:54:36.099Z,9.87
2023-02-18T20:57:03.074Z,9.20
2023-02-18T20:59:29.994Z,9.70
2023-02-18T21:01:56.839Z,12.30
2023-02-18T21:04:23.612Z,11.63
2023-02-18T21:06:50.759Z,9.10
2023-02-18T21:09:18.328Z,10.57
2023-02-18T21:11:45.530Z,12.07
2023-02-18T21:14:12.741Z,26.37
2023-02-18T21:16:39.875Z,12.23
2023-02-18T21:19:09.286Z,15.80
2023-02-18T21:21:36.375Z,11.03
2023-02-18T21:24:03.263Z,10.23
2023-02-18T21:26:30.503Z,10.33
2023-02-18T21:29:01.024Z,8.13
2023-02-18T21:31:33.510Z,10.17
2023-02-18T21:34:00.886Z,9.30
2023-02-18T21:36:28.128Z,11.07
2023-02-18T21:38:57.949Z,10.47
2023-02-18T21:41:26.039Z,10.20
2023-02-18T21:43:53.156Z,11.30
2023-02-18T21:46:26.009Z,10.80
2023-02-18T21:49:12.355Z,10.03
2023-02-18T21:52:05.269Z,11.00
2023-02-18T21:54:36.092Z,13.60
2023-02-18T21:57:04.130Z,10.70
2023-02-18T21:59:31.980Z,9.83
2023-02-18T22:02:02.668Z,10.20
2023-02-18T22:04:31.775Z,9.40
2023-02-18T22:06:59.051Z,11.63
2023-02-18T22:09:26.516Z,7.93
2023-02-18T22:11:53.620Z,9.13
2023-02-18T22:14:20.342Z,11.00
2023-02-18T22:16:47.625Z,8.73
2023-02-18T22:19:14.997Z,10.40
2023-02-18T22:21:42.414Z,14.13
2023-02-18T22:24:11.097Z,9.47
2023-02-18T22:26:37.967Z,8.27
2023-02-18T22:29:05.873Z,11.63
2023-02-18T22:31:33.151Z,9.87
2023-02-18T22:34:00.734Z,10.00
2023-02-18T22:36:28.484Z,10.33
2023-02-18T22:38:55.751Z,8.63
2023-02-18T22:41:24.349Z,10.97
2023-02-18T22:43:55.512Z,10.47
2023-02-18T22:46:22.559Z,10.20
2023-02-18T22:48:49.700Z,9.00
2023-02-18T22:51:25.120Z,10.80
2023-02-18T22:53:54.115Z,8.90
2023-02-18T22:56:22.705Z,10.87
2023-02-18T22:58:51.564Z,8.40
2023-02-18T23:01:28.580Z,7.67
2023-02-18T23:03:57.125Z,9.00
2023-02-18T23:06:24.745Z,9.50
2023-02-18T23:08:53.737Z,9.03
2023-02-18T23:11:20.510Z,7.90
2023-02-18T23:14:07.169Z,8.23
2023-02-18T23:16:54.609Z,8.60
2023-02-18T23:19:21.597Z,7.63
2023-02-18T23:21:48.499Z,8.00
2023-02-18T23:24:15.502Z,7.87
2023-02-18T23:26:42.584Z,8.10
2023-02-18T23:29:09.411Z,10.20
2023-02-18T23:31:39.371Z,9.40
2023-02-18T23:34:08.026Z,9.80
2023-02-18T23:36:36.420Z,7.77
2023-02-18T23:39:10.792Z,8.23
2023-02-18T23:41:37.957Z,7.33
2023-02-18T23:44:06.817Z,8.33
2023-02-18T23:46:34.063Z,7.90
2023-02-18T23:49:01.161Z,8.40
2023-02-18T23:51:29.637Z,8.47
2023-02-18T23:53:56.472Z,7.17
2023-02-18T23:56:25.825Z,8.07
2023-02-18T23:58:57.314Z,8.47
